sensor_id;sensor_type;location;lat;lon;timestamp;pressure;altitude;pressure_sealevel;temperature;humidity
76553;BME280;65395;53.168;18.156;2023-05-10T00:00:46;101428.35;;;8.43;48.69
76553;BME280;65395;53.168;18.156;2023-05-10T00:03:13;101428.73;;;8.40;48.88
76553;BME280;65395;53.168;18.156;2023-05-10T00:05:39;101425.84;;;8.36;48.92
76553;BME280;65395;53.168;18.156;2023-05-10T00:08:07;101426.84;;;8.32;48.85
76553;BME280;65395;53.168;18.156;2023-05-10T00:10:36;101425.37;;;8.26;49.16
76553;BME280;65395;53.168;18.156;2023-05-10T00:13:03;101422.05;;;8.22;49.40
76553;BME280;65395;53.168;18.156;2023-05-10T00:15:30;101421.56;;;8.20;49.51
76553;BME280;65395;53.168;18.156;2023-05-10T00:17:57;101419.07;;;8.18;49.42
76553;BME280;65395;53.168;18.156;2023-05-10T00:20:24;101415.70;;;8.16;49.63
76553;BME280;65395;53.168;18.156;2023-05-10T00:22:51;101414.77;;;8.12;49.63
76553;BME280;65395;53.168;18.156;2023-05-10T00:25:18;101411.42;;;8.09;49.66
76553;BME280;65395;53.168;18.156;2023-05-10T00:27:44;101413.18;;;8.05;49.76
76553;BME280;65395;53.168;18.156;2023-05-10T00:30:11;101405.20;;;8.00;49.97
76553;BME280;65395;53.168;18.156;2023-05-10T00:32:38;101404.64;;;7.95;50.05
76553;BME280;65395;53.168;18.156;2023-05-10T00:35:05;101405.02;;;7.90;50.20
76553;BME280;65395;53.168;18.156;2023-05-10T00:37:32;101401.23;;;7.85;50.33
76553;BME280;65395;53.168;18.156;2023-05-10T00:39:59;101402.57;;;7.82;50.31
76553;BME280;65395;53.168;18.156;2023-05-10T00:42:27;101400.38;;;7.80;50.55
76553;BME280;65395;53.168;18.156;2023-05-10T00:44:53;101402.42;;;7.78;50.55
76553;BME280;65395;53.168;18.156;2023-05-10T00:47:20;101400.27;;;7.77;50.71
76553;BME280;65395;53.168;18.156;2023-05-10T00:49:48;101400.35;;;7.76;50.49
76553;BME280;65395;53.168;18.156;2023-05-10T00:52:15;101396.33;;;7.72;50.63
76553;BME280;65395;53.168;18.156;2023-05-10T00:54:42;101396.57;;;7.70;50.87
76553;BME280;65395;53.168;18.156;2023-05-10T00:57:09;101390.94;;;7.68;50.85
76553;BME280;65395;53.168;18.156;2023-05-10T00:59:36;101389.50;;;7.66;50.97
76553;BME280;65395;53.168;18.156;2023-05-10T01:02:03;101386.85;;;7.63;50.98
76553;BME280;65395;53.168;18.156;2023-05-10T01:04:30;101381.70;;;7.58;51.04
76553;BME280;65395;53.168;18.156;2023-05-10T01:06:57;101379.85;;;7.57;51.11
76553;BME280;65395;53.168;18.156;2023-05-10T01:09:24;101378.90;;;7.56;51.02
76553;BME280;65395;53.168;18.156;2023-05-10T01:11:53;101381.02;;;7.54;51.17
76553;BME280;65395;53.168;18.156;2023-05-10T01:14:21;101380.82;;;7.53;51.42
76553;BME280;65395;53.168;18.156;2023-05-10T01:16:48;101379.75;;;7.52;51.49
76553;BME280;65395;53.168;18.156;2023-05-10T01:19:19;101380.94;;;7.50;51.62
76553;BME280;65395;53.168;18.156;2023-05-10T01:21:57;101382.02;;;7.47;51.72
76553;BME280;65395;53.168;18.156;2023-05-10T01:24:43;101379.39;;;7.47;51.89
76553;BME280;65395;53.168;18.156;2023-05-10T01:30:23;101374.13;;;7.47;51.95
76553;BME280;65395;53.168;18.156;2023-05-10T01:33:18;101368.80;;;7.44;51.97
76553;BME280;65395;53.168;18.156;2023-05-10T01:36:03;101366.58;;;7.41;51.92
76553;BME280;65395;53.168;18.156;2023-05-10T01:38:43;101362.41;;;7.39;52.02
76553;BME280;65395;53.168;18.156;2023-05-10T01:47:04;101358.17;;;7.35;52.17
76553;BME280;65395;53.168;18.156;2023-05-10T01:49:38;101355.40;;;7.33;52.19
76553;BME280;65395;53.168;18.156;2023-05-10T01:52:11;101353.18;;;7.29;52.34
76553;BME280;65395;53.168;18.156;2023-05-10T01:54:42;101352.60;;;7.26;52.37
76553;BME280;65395;53.168;18.156;2023-05-10T01:57:10;101350.47;;;7.22;52.57
76553;BME280;65395;53.168;18.156;2023-05-10T01:59:43;101352.58;;;7.20;52.67
76553;BME280;65395;53.168;18.156;2023-05-10T02:02:12;101348.63;;;7.18;52.58
76553;BME280;65395;53.168;18.156;2023-05-10T02:04:42;101348.58;;;7.18;52.64
76553;BME280;65395;53.168;18.156;2023-05-10T02:07:10;101342.14;;;7.15;52.65
76553;BME280;65395;53.168;18.156;2023-05-10T02:09:38;101343.23;;;7.10;52.76
76553;BME280;65395;53.168;18.156;2023-05-10T02:12:07;101342.16;;;7.07;52.88
76553;BME280;65395;53.168;18.156;2023-05-10T02:14:36;101339.84;;;7.05;53.14
76553;BME280;65395;53.168;18.156;2023-05-10T02:17:05;101338.88;;;7.04;53.14
76553;BME280;65395;53.168;18.156;2023-05-10T02:19:33;101337.99;;;7.04;53.09
76553;BME280;65395;53.168;18.156;2023-05-10T02:22:03;101334.17;;;7.01;53.11
76553;BME280;65395;53.168;18.156;2023-05-10T02:24:31;101333.48;;;6.96;52.97
76553;BME280;65395;53.168;18.156;2023-05-10T02:27:00;101330.84;;;6.90;53.21
76553;BME280;65395;53.168;18.156;2023-05-10T02:29:30;101328.36;;;6.83;53.36
76553;BME280;65395;53.168;18.156;2023-05-10T02:31:58;101328.55;;;6.79;53.35
76553;BME280;65395;53.168;18.156;2023-05-10T02:34:27;101330.86;;;6.75;53.49
76553;BME280;65395;53.168;18.156;2023-05-10T02:36:55;101329.25;;;6.72;53.63
76553;BME280;65395;53.168;18.156;2023-05-10T02:39:22;101326.19;;;6.70;53.62
76553;BME280;65395;53.168;18.156;2023-05-10T02:41:51;101328.58;;;6.68;53.61
76553;BME280;65395;53.168;18.156;2023-05-10T02:44:19;101326.96;;;6.65;53.93
76553;BME280;65395;53.168;18.156;2023-05-10T02:46:47;101329.41;;;6.64;53.87
76553;BME280;65395;53.168;18.156;2023-05-10T02:49:15;101327.63;;;6.63;53.89
76553;BME280;65395;53.168;18.156;2023-05-10T02:51:46;101327.17;;;6.61;53.87
76553;BME280;65395;53.168;18.156;2023-05-10T02:54:19;101327.53;;;6.57;53.96
76553;BME280;65395;53.168;18.156;2023-05-10T02:56:51;101329.73;;;6.54;54.08
76553;BME280;65395;53.168;18.156;2023-05-10T02:59:20;101329.84;;;6.49;54.29
76553;BME280;65395;53.168;18.156;2023-05-10T03:01:47;101328.62;;;6.48;54.31
76553;BME280;65395;53.168;18.156;2023-05-10T03:04:13;101323.59;;;6.48;54.54
76553;BME280;65395;53.168;18.156;2023-05-10T03:06:41;101325.58;;;6.49;54.46
76553;BME280;65395;53.168;18.156;2023-05-10T03:09:09;101324.75;;;6.50;54.39
76553;BME280;65395;53.168;18.156;2023-05-10T03:11:56;101329.31;;;6.50;54.43
76553;BME280;65395;53.168;18.156;2023-05-10T03:14:45;101328.09;;;6.49;54.48
76553;BME280;65395;53.168;18.156;2023-05-10T03:17:36;101329.83;;;6.52;54.75
76553;BME280;65395;53.168;18.156;2023-05-10T03:20:09;101331.27;;;6.55;54.47
76553;BME280;65395;53.168;18.156;2023-05-10T03:22:39;101326.52;;;6.56;54.49
76553;BME280;65395;53.168;18.156;2023-05-10T03:25:10;101328.77;;;6.59;54.53
76553;BME280;65395;53.168;18.156;2023-05-10T03:27:40;101329.84;;;6.65;54.44
76553;BME280;65395;53.168;18.156;2023-05-10T03:30:10;101329.46;;;6.68;54.37
76553;BME280;65395;53.168;18.156;2023-05-10T03:32:37;101330.59;;;6.70;54.23
76553;BME280;65395;53.168;18.156;2023-05-10T03:35:08;101331.14;;;6.72;54.30
76553;BME280;65395;53.168;18.156;2023-05-10T03:37:35;101330.48;;;6.74;54.29
76553;BME280;65395;53.168;18.156;2023-05-10T03:40:02;101329.02;;;6.77;54.20
76553;BME280;65395;53.168;18.156;2023-05-10T03:42:30;101330.41;;;6.81;54.30
76553;BME280;65395;53.168;18.156;2023-05-10T03:44:57;101327.23;;;6.86;54.14
76553;BME280;65395;53.168;18.156;2023-05-10T03:47:24;101328.70;;;6.90;54.15
76553;BME280;65395;53.168;18.156;2023-05-10T03:49:52;101327.88;;;6.96;54.16
76553;BME280;65395;53.168;18.156;2023-05-10T03:52:19;101326.30;;;7.01;53.97
76553;BME280;65395;53.168;18.156;2023-05-10T03:54:45;101329.55;;;7.05;54.14
76553;BME280;65395;53.168;18.156;2023-05-10T03:57:12;101327.77;;;7.08;54.02
76553;BME280;65395;53.168;18.156;2023-05-10T03:59:39;101326.70;;;7.13;53.92
76553;BME280;65395;53.168;18.156;2023-05-10T04:02:06;101325.27;;;7.16;54.01
76553;BME280;65395;53.168;18.156;2023-05-10T04:04:33;101318.20;;;7.16;53.85
76553;BME280;65395;53.168;18.156;2023-05-10T04:06:59;101322.11;;;7.24;53.95
76553;BME280;65395;53.168;18.156;2023-05-10T04:09:26;101321.43;;;7.30;53.69
76553;BME280;65395;53.168;18.156;2023-05-10T04:11:53;101324.83;;;7.37;53.67
76553;BME280;65395;53.168;18.156;2023-05-10T04:14:19;101323.22;;;7.45;53.44
76553;BME280;65395;53.168;18.156;2023-05-10T04:16:46;101322.45;;;7.51;53.43
76553;BME280;65395;53.168;18.156;2023-05-10T04:19:12;101323.21;;;7.59;53.17
76553;BME280;65395;53.168;18.156;2023-05-10T04:21:39;101325.02;;;7.68;53.14
76553;BME280;65395;53.168;18.156;2023-05-10T04:24:06;101324.04;;;7.76;52.98
76553;BME280;65395;53.168;18.156;2023-05-10T04:26:32;101323.89;;;7.82;52.76
76553;BME280;65395;53.168;18.156;2023-05-10T04:28:59;101319.61;;;7.87;52.80
76553;BME280;65395;53.168;18.156;2023-05-10T04:31:26;101316.58;;;7.92;52.64
76553;BME280;65395;53.168;18.156;2023-05-10T04:33:54;101310.15;;;7.97;52.64
76553;BME280;65395;53.168;18.156;2023-05-10T04:36:20;101314.98;;;8.03;52.55
76553;BME280;65395;53.168;18.156;2023-05-10T04:38:47;101316.15;;;8.08;52.57
76553;BME280;65395;53.168;18.156;2023-05-10T04:41:14;101313.98;;;8.12;52.57
76553;BME280;65395;53.168;18.156;2023-05-10T04:43:41;101312.71;;;8.19;52.34
76553;BME280;65395;53.168;18.156;2023-05-10T04:46:07;101313.95;;;8.27;52.15
76553;BME280;65395;53.168;18.156;2023-05-10T04:48:34;101315.34;;;8.36;51.98
76553;BME280;65395;53.168;18.156;2023-05-10T04:51:01;101310.55;;;8.44;52.03
76553;BME280;65395;53.168;18.156;2023-05-10T04:53:29;101314.48;;;8.51;51.99
76553;BME280;65395;53.168;18.156;2023-05-10T04:55:56;101312.14;;;8.58;51.95
76553;BME280;65395;53.168;18.156;2023-05-10T04:58:23;101310.91;;;8.64;51.56
76553;BME280;65395;53.168;18.156;2023-05-10T05:00:50;101316.57;;;8.71;51.40
76553;BME280;65395;53.168;18.156;2023-05-10T05:03:16;101314.60;;;8.77;51.42
76553;BME280;65395;53.168;18.156;2023-05-10T05:05:44;101313.77;;;8.82;51.28
76553;BME280;65395;53.168;18.156;2023-05-10T05:08:11;101314.11;;;8.87;51.27
76553;BME280;65395;53.168;18.156;2023-05-10T05:10:37;101315.09;;;8.94;51.22
76553;BME280;65395;53.168;18.156;2023-05-10T05:13:04;101314.58;;;8.99;51.22
76553;BME280;65395;53.168;18.156;2023-05-10T05:15:31;101309.34;;;9.03;51.34
76553;BME280;65395;53.168;18.156;2023-05-10T05:17:58;101307.67;;;9.07;51.30
76553;BME280;65395;53.168;18.156;2023-05-10T05:20:25;101308.59;;;9.13;51.01
76553;BME280;65395;53.168;18.156;2023-05-10T05:22:51;101309.02;;;9.20;50.95
76553;BME280;65395;53.168;18.156;2023-05-10T05:25:18;101310.37;;;9.27;50.83
76553;BME280;65395;53.168;18.156;2023-05-10T05:27:45;101308.21;;;9.33;50.79
76553;BME280;65395;53.168;18.156;2023-05-10T05:30:12;101309.85;;;9.39;50.61
76553;BME280;65395;53.168;18.156;2023-05-10T05:32:39;101311.55;;;9.46;50.54
76553;BME280;65395;53.168;18.156;2023-05-10T05:35:06;101308.88;;;9.52;50.71
76553;BME280;65395;53.168;18.156;2023-05-10T05:37:34;101312.48;;;9.58;50.55
76553;BME280;65395;53.168;18.156;2023-05-10T05:40:02;101301.98;;;9.65;50.38
76553;BME280;65395;53.168;18.156;2023-05-10T05:42:30;101301.09;;;9.72;50.16
76553;BME280;65395;53.168;18.156;2023-05-10T05:44:57;101299.73;;;9.79;50.17
76553;BME280;65395;53.168;18.156;2023-05-10T05:47:25;101302.48;;;9.87;50.21
76553;BME280;65395;53.168;18.156;2023-05-10T05:49:52;101302.89;;;9.96;49.92
76553;BME280;65395;53.168;18.156;2023-05-10T05:52:19;101303.62;;;10.05;49.82
76553;BME280;65395;53.168;18.156;2023-05-10T05:54:46;101300.48;;;10.13;49.51
76553;BME280;65395;53.168;18.156;2023-05-10T05:57:13;101302.46;;;10.23;49.46
76553;BME280;65395;53.168;18.156;2023-05-10T05:59:40;101301.77;;;10.33;49.38
76553;BME280;65395;53.168;18.156;2023-05-10T06:02:10;101302.42;;;10.41;49.31
76553;BME280;65395;53.168;18.156;2023-05-10T06:04:37;101302.77;;;10.52;48.91
76553;BME280;65395;53.168;18.156;2023-05-10T06:07:04;101304.11;;;10.62;48.72
76553;BME280;65395;53.168;18.156;2023-05-10T06:09:31;101304.92;;;10.71;48.71
76553;BME280;65395;53.168;18.156;2023-05-10T06:11:58;101306.83;;;10.82;48.31
76553;BME280;65395;53.168;18.156;2023-05-10T06:14:25;101306.73;;;10.94;47.96
76553;BME280;65395;53.168;18.156;2023-05-10T06:16:52;101308.95;;;11.05;47.77
76553;BME280;65395;53.168;18.156;2023-05-10T06:19:19;101308.52;;;11.16;47.38
76553;BME280;65395;53.168;18.156;2023-05-10T06:21:47;101309.98;;;11.28;46.22
76553;BME280;65395;53.168;18.156;2023-05-10T06:24:14;101312.16;;;11.41;46.24
76553;BME280;65395;53.168;18.156;2023-05-10T06:26:41;101315.10;;;11.54;46.05
76553;BME280;65395;53.168;18.156;2023-05-10T06:29:07;101307.52;;;11.66;45.51
76553;BME280;65395;53.168;18.156;2023-05-10T06:31:34;101307.04;;;11.77;45.54
76553;BME280;65395;53.168;18.156;2023-05-10T06:34:01;101302.66;;;11.88;45.40
76553;BME280;65395;53.168;18.156;2023-05-10T06:36:28;101309.95;;;11.99;44.90
76553;BME280;65395;53.168;18.156;2023-05-10T06:38:55;101307.11;;;12.11;44.34
76553;BME280;65395;53.168;18.156;2023-05-10T06:41:22;101303.72;;;12.23;43.69
76553;BME280;65395;53.168;18.156;2023-05-10T06:43:49;101300.19;;;12.32;43.81
76553;BME280;65395;53.168;18.156;2023-05-10T06:46:15;101304.83;;;12.42;43.32
76553;BME280;65395;53.168;18.156;2023-05-10T06:48:42;101303.70;;;12.54;43.09
76553;BME280;65395;53.168;18.156;2023-05-10T06:51:10;101302.77;;;12.63;43.17
76553;BME280;65395;53.168;18.156;2023-05-10T06:53:36;101301.05;;;12.73;42.65
76553;BME280;65395;53.168;18.156;2023-05-10T06:56:03;101300.02;;;12.82;43.09
76553;BME280;65395;53.168;18.156;2023-05-10T06:58:30;101295.25;;;12.92;42.73
76553;BME280;65395;53.168;18.156;2023-05-10T07:01:03;101297.83;;;13.02;42.43
76553;BME280;65395;53.168;18.156;2023-05-10T07:03:31;101300.50;;;13.14;42.37
76553;BME280;65395;53.168;18.156;2023-05-10T07:06:05;101303.72;;;13.23;42.05
76553;BME280;65395;53.168;18.156;2023-05-10T07:08:34;101299.45;;;13.32;41.77
76553;BME280;65395;53.168;18.156;2023-05-10T07:11:02;101297.42;;;13.40;41.92
76553;BME280;65395;53.168;18.156;2023-05-10T07:13:31;101300.84;;;13.49;41.34
76553;BME280;65395;53.168;18.156;2023-05-10T07:15:58;101297.54;;;13.57;41.30
76553;BME280;65395;53.168;18.156;2023-05-10T07:18:26;101296.98;;;13.64;41.14
76553;BME280;65395;53.168;18.156;2023-05-10T07:20:53;101293.70;;;13.74;40.52
76553;BME280;65395;53.168;18.156;2023-05-10T07:23:20;101295.57;;;13.84;40.56
76553;BME280;65395;53.168;18.156;2023-05-10T07:25:47;101295.06;;;13.92;40.11
76553;BME280;65395;53.168;18.156;2023-05-10T07:28:15;101287.89;;;13.96;39.89
76553;BME280;65395;53.168;18.156;2023-05-10T07:30:42;101296.48;;;14.07;39.70
76553;BME280;65395;53.168;18.156;2023-05-10T07:33:11;101292.39;;;14.17;39.94
76553;BME280;65395;53.168;18.156;2023-05-10T07:35:39;101288.02;;;14.26;38.97
76553;BME280;65395;53.168;18.156;2023-05-10T07:38:05;101290.81;;;14.35;39.07
76553;BME280;65395;53.168;18.156;2023-05-10T07:40:33;101291.65;;;14.44;38.72
76553;BME280;65395;53.168;18.156;2023-05-10T07:42:59;101294.30;;;14.53;38.37
76553;BME280;65395;53.168;18.156;2023-05-10T07:45:28;101293.77;;;14.61;38.61
76553;BME280;65395;53.168;18.156;2023-05-10T07:47:55;101290.88;;;14.68;38.05
76553;BME280;65395;53.168;18.156;2023-05-10T07:50:21;101289.77;;;14.75;37.94
76553;BME280;65395;53.168;18.156;2023-05-10T07:52:48;101294.35;;;14.81;37.84
76553;BME280;65395;53.168;18.156;2023-05-10T07:55:15;101290.90;;;14.89;37.70
76553;BME280;65395;53.168;18.156;2023-05-10T07:57:42;101290.15;;;14.97;37.51
76553;BME280;65395;53.168;18.156;2023-05-10T08:00:12;101293.44;;;15.07;36.76
76553;BME280;65395;53.168;18.156;2023-05-10T08:02:40;101294.61;;;15.14;36.70
76553;BME280;65395;53.168;18.156;2023-05-10T08:05:08;101293.85;;;15.19;36.52
76553;BME280;65395;53.168;18.156;2023-05-10T08:07:35;101294.50;;;15.26;36.26
76553;BME280;65395;53.168;18.156;2023-05-10T08:10:02;101290.02;;;15.32;36.35
76553;BME280;65395;53.168;18.156;2023-05-10T08:12:29;101292.65;;;15.40;35.86
76553;BME280;65395;53.168;18.156;2023-05-10T08:14:56;101284.98;;;15.47;35.48
76553;BME280;65395;53.168;18.156;2023-05-10T08:17:23;101285.33;;;15.52;35.53
76553;BME280;65395;53.168;18.156;2023-05-10T08:19:50;101279.48;;;15.58;35.69
76553;BME280;65395;53.168;18.156;2023-05-10T08:22:17;101282.52;;;15.64;35.74
76553;BME280;65395;53.168;18.156;2023-05-10T08:24:44;101283.98;;;15.72;35.64
76553;BME280;65395;53.168;18.156;2023-05-10T08:27:11;101283.90;;;15.79;34.55
76553;BME280;65395;53.168;18.156;2023-05-10T08:29:38;101290.02;;;15.86;34.31
76553;BME280;65395;53.168;18.156;2023-05-10T08:32:04;101284.23;;;15.95;34.51
76553;BME280;65395;53.168;18.156;2023-05-10T08:34:31;101283.52;;;16.05;33.91
76553;BME280;65395;53.168;18.156;2023-05-10T08:36:58;101283.36;;;16.13;33.55
76553;BME280;65395;53.168;18.156;2023-05-10T08:39:25;101279.83;;;16.20;33.41
76553;BME280;65395;53.168;18.156;2023-05-10T08:41:53;101273.35;;;16.26;32.82
76553;BME280;65395;53.168;18.156;2023-05-10T08:44:20;101277.65;;;16.32;33.30
76553;BME280;65395;53.168;18.156;2023-05-10T08:46:49;101279.42;;;16.38;32.84
76553;BME280;65395;53.168;18.156;2023-05-10T08:49:20;101280.62;;;16.46;32.04
76553;BME280;65395;53.168;18.156;2023-05-10T08:51:51;101283.27;;;16.50;32.28
76553;BME280;65395;53.168;18.156;2023-05-10T08:54:18;101281.67;;;16.56;32.22
76553;BME280;65395;53.168;18.156;2023-05-10T08:56:46;101273.55;;;16.61;31.55
76553;BME280;65395;53.168;18.156;2023-05-10T08:59:13;101277.66;;;16.66;31.81
76553;BME280;65395;53.168;18.156;2023-05-10T09:01:42;101274.73;;;16.70;31.24
76553;BME280;65395;53.168;18.156;2023-05-10T09:04:10;101282.85;;;16.74;31.08
76553;BME280;65395;53.168;18.156;2023-05-10T09:06:38;101278.75;;;16.80;31.26
76553;BME280;65395;53.168;18.156;2023-05-10T09:09:05;101273.42;;;16.84;30.59
76553;BME280;65395;53.168;18.156;2023-05-10T09:11:32;101276.48;;;16.87;31.29
76553;BME280;65395;53.168;18.156;2023-05-10T09:14:01;101276.46;;;16.93;30.71
76553;BME280;65395;53.168;18.156;2023-05-10T09:16:28;101275.97;;;16.99;31.32
76553;BME280;65395;53.168;18.156;2023-05-10T09:22:10;101267.60;;;17.16;30.45
76553;BME280;65395;53.168;18.156;2023-05-10T09:24:37;101272.16;;;17.20;30.44
76553;BME280;65395;53.168;18.156;2023-05-10T09:33:44;101264.42;;;17.44;30.29
76553;BME280;65395;53.168;18.156;2023-05-10T09:36:11;101270.30;;;17.51;30.50
76553;BME280;65395;53.168;18.156;2023-05-10T09:38:48;101272.80;;;17.61;30.37
76553;BME280;65395;53.168;18.156;2023-05-10T09:41:17;101274.83;;;17.71;30.29
76553;BME280;65395;53.168;18.156;2023-05-10T09:43:44;101269.01;;;17.79;30.16
76553;BME280;65395;53.168;18.156;2023-05-10T09:46:11;101265.66;;;17.86;30.26
76553;BME280;65395;53.168;18.156;2023-05-10T09:48:43;101262.17;;;17.92;29.58
76553;BME280;65395;53.168;18.156;2023-05-10T09:51:10;101259.27;;;17.96;29.66
76553;BME280;65395;53.168;18.156;2023-05-10T09:53:37;101263.77;;;18.03;30.11
76553;BME280;65395;53.168;18.156;2023-05-10T09:56:04;101259.80;;;18.14;29.89
76553;BME280;65395;53.168;18.156;2023-05-10T09:58:31;101262.99;;;18.22;29.50
76553;BME280;65395;53.168;18.156;2023-05-10T10:00:58;101259.17;;;18.25;29.44
76553;BME280;65395;53.168;18.156;2023-05-10T10:03:24;101254.09;;;18.30;29.39
76553;BME280;65395;53.168;18.156;2023-05-10T10:05:52;101253.63;;;18.36;29.85
76553;BME280;65395;53.168;18.156;2023-05-10T10:08:19;101252.09;;;18.45;29.78
76553;BME280;65395;53.168;18.156;2023-05-10T10:10:47;101253.27;;;18.55;29.62
76553;BME280;65395;53.168;18.156;2023-05-10T10:13:14;101250.58;;;18.60;29.00
76553;BME280;65395;53.168;18.156;2023-05-10T10:15:42;101247.48;;;18.61;28.92
76553;BME280;65395;53.168;18.156;2023-05-10T10:18:13;101241.77;;;18.61;29.04
76553;BME280;65395;53.168;18.156;2023-05-10T10:20:41;101235.23;;;18.65;29.30
76553;BME280;65395;53.168;18.156;2023-05-10T10:23:08;101238.36;;;18.74;29.24
76553;BME280;65395;53.168;18.156;2023-05-10T10:25:35;101235.44;;;18.82;29.11
76553;BME280;65395;53.168;18.156;2023-05-10T10:28:16;101232.35;;;18.91;28.97
76553;BME280;65395;53.168;18.156;2023-05-10T10:30:50;101233.73;;;18.99;28.93
76553;BME280;65395;53.168;18.156;2023-05-10T10:33:36;101234.75;;;19.09;28.49
76553;BME280;65395;53.168;18.156;2023-05-10T10:36:06;101242.49;;;19.16;28.66
76553;BME280;65395;53.168;18.156;2023-05-10T10:41:29;101226.70;;;19.27;28.89
76553;BME280;65395;53.168;18.156;2023-05-10T10:49:33;101220.63;;;19.30;28.54
76553;BME280;65395;53.168;18.156;2023-05-10T10:55:01;101219.56;;;19.36;27.89
76553;BME280;65395;53.168;18.156;2023-05-10T10:57:31;101224.92;;;19.39;27.88
76553;BME280;65395;53.168;18.156;2023-05-10T11:03:10;101228.08;;;19.48;27.92
76553;BME280;65395;53.168;18.156;2023-05-10T11:05:45;101220.98;;;19.52;27.99
76553;BME280;65395;53.168;18.156;2023-05-10T11:08:27;101221.01;;;19.56;27.64
76553;BME280;65395;53.168;18.156;2023-05-10T11:11:04;101228.30;;;19.57;27.24
76553;BME280;65395;53.168;18.156;2023-05-10T11:13:42;101218.36;;;19.59;27.76
76553;BME280;65395;53.168;18.156;2023-05-10T11:16:18;101222.26;;;19.65;26.81
76553;BME280;65395;53.168;18.156;2023-05-10T11:19:07;101225.16;;;19.64;26.65
76553;BME280;65395;53.168;18.156;2023-05-10T11:21:45;101221.70;;;19.65;26.66
76553;BME280;65395;53.168;18.156;2023-05-10T11:24:14;101224.60;;;19.67;27.17
76553;BME280;65395;53.168;18.156;2023-05-10T11:26:42;101222.52;;;19.71;27.39
76553;BME280;65395;53.168;18.156;2023-05-10T11:29:09;101221.34;;;19.74;27.32
76553;BME280;65395;53.168;18.156;2023-05-10T11:31:42;101216.55;;;19.75;27.08
76553;BME280;65395;53.168;18.156;2023-05-10T11:34:10;101218.13;;;19.77;27.25
76553;BME280;65395;53.168;18.156;2023-05-10T11:36:37;101212.98;;;19.81;27.00
76553;BME280;65395;53.168;18.156;2023-05-10T11:39:04;101212.86;;;19.91;26.94
76553;BME280;65395;53.168;18.156;2023-05-10T11:41:32;101202.63;;;19.96;26.63
76553;BME280;65395;53.168;18.156;2023-05-10T11:43:59;101210.08;;;20.09;26.65
76553;BME280;65395;53.168;18.156;2023-05-10T11:46:27;101211.95;;;20.22;26.91
76553;BME280;65395;53.168;18.156;2023-05-10T11:48:58;101208.66;;;20.37;26.37
76553;BME280;65395;53.168;18.156;2023-05-10T11:51:27;101215.83;;;20.48;25.96
76553;BME280;65395;53.168;18.156;2023-05-10T11:53:56;101210.79;;;20.54;26.19
76553;BME280;65395;53.168;18.156;2023-05-10T11:56:23;101211.13;;;20.63;25.83
76553;BME280;65395;53.168;18.156;2023-05-10T11:58:57;101205.17;;;20.74;26.32
76553;BME280;65395;53.168;18.156;2023-05-10T12:01:25;101210.17;;;20.91;25.82
76553;BME280;65395;53.168;18.156;2023-05-10T12:03:55;101204.08;;;20.97;25.30
76553;BME280;65395;53.168;18.156;2023-05-10T12:06:28;101206.09;;;20.98;25.04
76553;BME280;65395;53.168;18.156;2023-05-10T12:08:55;101203.80;;;21.01;24.93
76553;BME280;65395;53.168;18.156;2023-05-10T12:11:27;101203.55;;;21.07;24.50
76553;BME280;65395;53.168;18.156;2023-05-10T12:13:55;101205.52;;;21.14;24.56
76553;BME280;65395;53.168;18.156;2023-05-10T12:16:24;101206.68;;;21.21;24.73
76553;BME280;65395;53.168;18.156;2023-05-10T12:18:56;101201.79;;;21.30;24.19
76553;BME280;65395;53.168;18.156;2023-05-10T12:21:23;101201.63;;;21.39;24.20
76553;BME280;65395;53.168;18.156;2023-05-10T12:23:53;101204.11;;;21.51;23.59
76553;BME280;65395;53.168;18.156;2023-05-10T12:26:22;101194.51;;;21.60;24.09
76553;BME280;65395;53.168;18.156;2023-05-10T12:28:49;101196.39;;;21.73;23.78
76553;BME280;65395;53.168;18.156;2023-05-10T12:31:16;101188.42;;;21.82;23.14
76553;BME280;65395;53.168;18.156;2023-05-10T12:33:44;101196.94;;;21.85;23.58
76553;BME280;65395;53.168;18.156;2023-05-10T12:36:14;101192.60;;;21.96;23.64
76553;BME280;65395;53.168;18.156;2023-05-10T12:38:44;101190.93;;;22.11;23.39
76553;BME280;65395;53.168;18.156;2023-05-10T12:41:16;101196.83;;;22.24;23.45
76553;BME280;65395;53.168;18.156;2023-05-10T12:43:43;101195.82;;;22.33;22.98
76553;BME280;65395;53.168;18.156;2023-05-10T12:46:13;101206.69;;;22.42;23.06
76553;BME280;65395;53.168;18.156;2023-05-10T12:48:41;101202.09;;;22.49;22.42
76553;BME280;65395;53.168;18.156;2023-05-10T12:51:09;101204.80;;;22.51;22.76
76553;BME280;65395;53.168;18.156;2023-05-10T12:53:39;101203.21;;;22.61;22.79
76553;BME280;65395;53.168;18.156;2023-05-10T12:56:06;101201.16;;;22.69;22.48
76553;BME280;65395;53.168;18.156;2023-05-10T12:58:34;101194.19;;;22.78;22.35
76553;BME280;65395;53.168;18.156;2023-05-10T13:01:02;101190.30;;;22.94;22.43
76553;BME280;65395;53.168;18.156;2023-05-10T13:03:29;101191.30;;;23.10;22.28
76553;BME280;65395;53.168;18.156;2023-05-10T13:05:57;101186.55;;;23.20;22.01
76553;BME280;65395;53.168;18.156;2023-05-10T13:08:23;101186.34;;;23.08;21.36
76553;BME280;65395;53.168;18.156;2023-05-10T13:10:51;101189.37;;;22.86;21.40
76553;BME280;65395;53.168;18.156;2023-05-10T13:13:18;101189.16;;;22.75;21.63
76553;BME280;65395;53.168;18.156;2023-05-10T13:15:45;101188.59;;;22.78;22.02
76553;BME280;65395;53.168;18.156;2023-05-10T13:18:12;101185.64;;;22.92;21.95
76553;BME280;65395;53.168;18.156;2023-05-10T13:20:38;101190.48;;;23.03;22.13
76553;BME280;65395;53.168;18.156;2023-05-10T13:23:05;101190.48;;;23.24;22.00
76553;BME280;65395;53.168;18.156;2023-05-10T13:25:32;101184.02;;;23.43;21.76